createdAt,value
2022-07-29T00:04:16.741Z,0.80
2022-07-29T00:09:19.466Z,0.90
2022-07-29T00:14:23.239Z,1.17
2022-07-29T00:19:25.545Z,1.00
2022-07-29T00:24:28.090Z,0.93
2022-07-29T00:29:33.906Z,0.88
2022-07-29T00:34:37.072Z,0.90
2022-07-29T00:39:39.339Z,1.13
2022-07-29T00:44:43.243Z,1.00
2022-07-29T00:49:45.694Z,0.88
2022-07-29T00:54:48.121Z,0.88
2022-07-29T00:59:51.887Z,0.90
2022-07-29T01:04:55.401Z,0.80
2022-07-29T01:09:59.592Z,0.80
2022-07-29T01:15:05.515Z,0.80
2022-07-29T01:20:14.836Z,0.85
2022-07-29T01:25:38.050Z,0.80
2022-07-29T01:30:45.625Z,0.90
2022-07-29T01:35:48.363Z,0.85
2022-07-29T01:40:55.521Z,0.80
2022-07-29T01:46:02.742Z,1.00
2022-07-29T01:56:12.386Z,0.73
2022-07-29T02:01:18.657Z,0.70
2022-07-29T02:06:24.510Z,1.05
2022-07-29T02:11:27.373Z,0.70
2022-07-29T02:16:33.749Z,0.80
2022-07-29T02:21:37.066Z,1.00
2022-07-29T02:26:42.721Z,1.05
2022-07-29T02:31:49.209Z,1.20
2022-07-29T02:36:53.360Z,0.90
2022-07-29T02:42:02.301Z,0.98
2022-07-29T02:47:14.631Z,1.10
2022-07-29T02:52:23.075Z,1.08
2022-07-29T02:57:33.544Z,0.98
2022-07-29T03:02:41.737Z,0.70
2022-07-29T03:07:48.492Z,1.27
2022-07-29T03:12:51.656Z,0.90
2022-07-29T03:17:55.624Z,1.13
2022-07-29T03:22:57.920Z,1.10
2022-07-29T03:28:01.143Z,0.70
2022-07-29T03:33:10.231Z,0.70
2022-07-29T03:38:16.428Z,0.90
2022-07-29T03:43:20.195Z,0.90
2022-07-29T03:48:26.438Z,1.25
2022-07-29T03:53:29.137Z,0.85
2022-07-29T03:58:32.707Z,0.95
2022-07-29T04:03:36.979Z,1.27
2022-07-29T04:08:39.701Z,1.08
2022-07-29T04:13:42.030Z,1.38
2022-07-29T04:18:45.844Z,1.10
2022-07-29T04:23:53.663Z,1.10
2022-07-29T04:28:56.415Z,1.25
2022-07-29T04:34:00.249Z,1.50
2022-07-29T04:39:02.872Z,1.50
2022-07-29T04:44:05.597Z,1.17
2022-07-29T04:49:10.738Z,1.00
2022-07-29T04:54:13.445Z,1.90
2022-07-29T04:59:16.271Z,1.50
2022-07-29T05:04:20.622Z,1.40
2022-07-29T05:09:23.531Z,1.30
2022-07-29T05:14:27.001Z,1.85
2022-07-29T05:19:30.829Z,4.15
2022-07-29T05:24:33.188Z,1.88
2022-07-29T05:29:44.439Z,1.35
2022-07-29T05:34:50.762Z,1.60
2022-07-29T05:39:56.515Z,1.20
2022-07-29T05:44:59.789Z,1.27
2022-07-29T05:50:04.007Z,1.15
2022-07-29T05:55:07.424Z,1.58
2022-07-29T06:00:11.429Z,1.10
2022-07-29T06:05:16.291Z,1.20
2022-07-29T06:10:20.082Z,1.75
2022-07-29T06:15:26.601Z,1.50
2022-07-29T06:20:31.521Z,1.50
2022-07-29T06:25:34.435Z,1.70
2022-07-29T06:30:37.111Z,1.48
2022-07-29T06:35:42.724Z,1.70
2022-07-29T06:40:56.025Z,1.43
2022-07-29T06:45:59.728Z,1.52
2022-07-29T06:51:04.269Z,1.67
2022-07-29T06:56:08.109Z,1.40
2022-07-29T07:01:10.692Z,1.85
2022-07-29T07:06:17.821Z,1.83
2022-07-29T07:11:42.721Z,1.90
2022-07-29T07:16:45.440Z,1.63
2022-07-29T07:21:49.469Z,1.58
2022-07-29T07:26:52.102Z,1.88
2022-07-29T07:31:58.945Z,1.40
2022-07-29T07:37:04.978Z,1.75
2022-07-29T07:42:07.612Z,1.42
2022-07-29T07:47:12.545Z,1.40
2022-07-29T07:52:17.831Z,1.60
2022-07-29T07:57:20.362Z,1.50
2022-07-29T08:02:22.758Z,1.33
2022-07-29T08:07:26.663Z,1.35
2022-07-29T08:12:29.101Z,1.70
2022-07-29T08:17:31.552Z,1.67
2022-07-29T08:22:39.529Z,1.40
2022-07-29T08:27:43.862Z,1.33
2022-07-29T08:32:54.319Z,1.30
2022-07-29T08:37:58.813Z,1.77
2022-07-29T08:43:06.765Z,3.45
2022-07-29T08:48:10.134Z,1.35
2022-07-29T08:53:15.749Z,1.50
2022-07-29T08:58:22.961Z,1.20
2022-07-29T09:03:32.410Z,1.38
2022-07-29T09:08:36.570Z,1.67
2022-07-29T09:13:39.070Z,1.73
2022-07-29T09:18:43.051Z,1.40
2022-07-29T09:24:05.623Z,1.52
2022-07-29T09:29:12.223Z,1.50
2022-07-29T09:34:17.464Z,1.30
2022-07-29T09:39:31.963Z,1.23
2022-07-29T09:44:45.948Z,1.20
2022-07-29T09:49:57.568Z,1.48
2022-07-29T09:55:09.033Z,1.45
2022-07-29T10:00:14.304Z,1.83
2022-07-29T10:05:22.768Z,2.05
2022-07-29T10:10:28.931Z,1.80
2022-07-29T10:15:34.053Z,1.45
2022-07-29T10:20:37.033Z,1.40
2022-07-29T10:25:46.020Z,1.40
2022-07-29T10:30:51.653Z,1.63
2022-07-29T10:36:16.235Z,1.80
2022-07-29T10:41:43.837Z,1.67
2022-07-29T10:46:47.772Z,1.58
2022-07-29T10:52:01.516Z,1.80
2022-07-29T10:57:15.137Z,1.38
2022-07-29T11:02:44.845Z,1.73
2022-07-29T11:08:26.368Z,1.73
2022-07-29T11:13:51.472Z,2.20
2022-07-29T11:19:29.774Z,2.08
2022-07-29T11:24:34.898Z,2.10
2022-07-29T11:29:41.535Z,1.20
2022-07-29T11:34:45.688Z,1.88
2022-07-29T11:40:10.004Z,1.77
2022-07-29T11:45:42.624Z,1.33
2022-07-29T11:56:09.497Z,1.55
2022-07-29T12:01:18.807Z,1.90
2022-07-29T12:06:21.949Z,3.72
2022-07-29T12:07:03.198Z,2.00
2022-07-29T12:11:26.296Z,1.80
2022-07-29T12:16:40.340Z,1.90
2022-07-29T12:21:53.619Z,2.00
2022-07-29T12:27:02.657Z,1.43
2022-07-29T12:32:14.538Z,1.70
2022-07-29T12:37:40.956Z,1.98
2022-07-29T12:43:12.119Z,1.50
2022-07-29T12:48:17.598Z,1.67
2022-07-29T12:53:20.137Z,1.50
2022-07-29T12:58:33.573Z,1.98
2022-07-29T13:03:57.014Z,2.25
2022-07-29T13:09:02.453Z,1.75
2022-07-29T13:14:07.139Z,2.10
2022-07-29T13:19:14.775Z,1.60
2022-07-29T13:24:19.993Z,1.52
2022-07-29T13:29:22.714Z,1.48
2022-07-29T13:34:27.922Z,1.55
2022-07-29T13:39:30.289Z,1.30
2022-07-29T13:44:32.712Z,1.42
2022-07-29T13:49:38.676Z,1.33
2022-07-29T13:54:42.534Z,1.87
2022-07-29T13:59:46.164Z,1.38
2022-07-29T14:04:51.369Z,1.60
2022-07-29T14:09:53.742Z,1.58
2022-07-29T14:14:56.117Z,1.40
2022-07-29T14:19:59.960Z,6.65
2022-07-29T14:25:13.082Z,8.38
2022-07-29T14:30:18.023Z,2.80
2022-07-29T14:35:21.864Z,4.68
2022-07-29T14:40:24.311Z,2.60
2022-07-29T14:45:26.747Z,3.15
2022-07-29T14:50:31.825Z,2.10
2022-07-29T14:55:34.768Z,2.20
2022-07-29T15:00:37.173Z,1.92
2022-07-29T15:05:41.023Z,2.40
2022-07-29T15:10:43.461Z,2.30
2022-07-29T15:15:46.004Z,1.90
2022-07-29T15:20:51.282Z,1.77
2022-07-29T15:25:54.027Z,1.83
2022-07-29T15:30:56.369Z,1.85
2022-07-29T15:36:00.934Z,1.58
2022-07-29T15:41:03.445Z,2.03
2022-07-29T15:46:06.152Z,1.55
2022-07-29T15:51:10.081Z,1.80
2022-07-29T15:56:12.503Z,1.88
2022-07-29T16:01:15.075Z,2.22
2022-07-29T16:06:19.051Z,4.95
2022-07-29T16:11:21.587Z,7.80
2022-07-29T16:16:23.994Z,5.13
2022-07-29T16:21:27.797Z,4.25
2022-07-29T16:26:30.348Z,3.67
2022-07-29T16:31:32.872Z,3.20
2022-07-29T16:36:36.768Z,2.30
2022-07-29T16:41:39.229Z,2.88
2022-07-29T16:46:44.643Z,2.58
2022-07-29T16:51:48.481Z,1.92
2022-07-29T16:56:50.869Z,2.20
2022-07-29T17:01:53.465Z,1.80
2022-07-29T17:06:58.318Z,2.30
2022-07-29T17:12:01.052Z,1.60
2022-07-29T17:17:03.567Z,1.52
2022-07-29T17:22:13.088Z,1.92
2022-07-29T17:27:18.586Z,1.40
2022-07-29T17:32:21.479Z,1.52
2022-07-29T17:37:25.452Z,1.20
2022-07-29T17:42:27.846Z,1.20
2022-07-29T17:47:30.475Z,2.45
2022-07-29T17:52:34.572Z,3.67
2022-07-29T17:57:37.166Z,3.63
2022-07-29T18:02:39.653Z,3.67
2022-07-29T18:07:43.566Z,2.47
2022-07-29T18:12:45.988Z,1.88
2022-07-29T18:17:56.776Z,2.17
2022-07-29T18:23:01.881Z,1.98
2022-07-29T18:28:05.436Z,1.80
2022-07-29T18:33:23.417Z,1.75
2022-07-29T18:38:27.355Z,1.50
2022-07-29T18:43:29.883Z,1.45
2022-07-29T18:48:32.793Z,1.20
2022-07-29T18:53:37.059Z,1.10
2022-07-29T18:58:39.561Z,1.38
2022-07-29T19:03:42.127Z,1.17
2022-07-29T19:08:46.170Z,1.30
2022-07-29T19:13:48.561Z,1.60
2022-07-29T19:18:50.947Z,1.20
2022-07-29T19:24:06.059Z,1.30
2022-07-29T19:29:11.191Z,1.60
2022-07-29T19:34:13.989Z,1.50
2022-07-29T19:39:18.220Z,1.40
2022-07-29T19:44:37.441Z,1.40
2022-07-29T19:49:40.026Z,1.58
2022-07-29T19:54:43.972Z,1.27
2022-07-29T19:59:46.703Z,1.45
2022-07-29T20:04:49.112Z,1.60
2022-07-29T20:09:53.475Z,1.60
2022-07-29T20:14:56.159Z,1.65
2022-07-29T20:19:58.710Z,1.35
2022-07-29T20:25:02.509Z,1.60
2022-07-29T20:30:06.712Z,1.40
2022-07-29T20:35:10.735Z,1.30
2022-07-29T20:40:14.725Z,1.88
2022-07-29T20:45:17.361Z,1.98
2022-07-29T20:50:20.657Z,1.70
2022-07-29T20:55:28.022Z,2.03
2022-07-29T21:00:30.771Z,2.30
2022-07-29T21:05:33.175Z,2.03
2022-07-29T21:10:37.130Z,1.75
2022-07-29T21:15:39.683Z,1.70
2022-07-29T21:20:42.267Z,1.90
2022-07-29T21:25:46.221Z,1.60
2022-07-29T21:30:48.599Z,1.92
2022-07-29T21:41:15.544Z,2.03
2022-07-29T21:46:18.383Z,2.25
2022-07-29T21:51:20.907Z,1.88
2022-07-29T21:56:27.806Z,1.70
2022-07-29T22:06:41.812Z,1.80
2022-07-29T22:11:45.857Z,2.15
2022-07-29T22:16:48.967Z,1.92
2022-07-29T22:21:51.605Z,2.10
2022-07-29T22:26:55.873Z,2.38
2022-07-29T22:31:58.504Z,2.10
2022-07-29T22:37:01.290Z,2.13
2022-07-29T22:42:05.858Z,1.63
2022-07-29T22:47:08.458Z,1.90
2022-07-29T22:52:10.937Z,1.80
2022-07-29T22:57:14.740Z,2.50
2022-07-29T23:02:17.073Z,2.28
2022-07-29T23:07:19.456Z,2.20
2022-07-29T23:12:23.468Z,2.10
2022-07-29T23:17:26.007Z,2.40
2022-07-29T23:22:28.436Z,2.88
2022-07-29T23:27:32.507Z,2.40
2022-07-29T23:32:35.006Z,2.28
2022-07-29T23:37:37.510Z,2.15
2022-07-29T23:42:42.455Z,2.50
2022-07-29T23:47:44.851Z,2.30
2022-07-29T23:52:47.218Z,2.03
2022-07-29T23:57:51.235Z,2.00
